Time;durP1;ratioP1;P1;durP2;ratioP2;P2;SDS_P1;SDS_P2;PMS_P1;PMS_P2;Temp;Humidity;BMP_temperature;BMP_pressure;BME280_temperature;BME280_humidity;BME280_pressure;Samples;Min_cycle;Max_cycle;Signal;HPM_P1;HPM_P2
2021/03/18 00:00:25;;;;;;;9.90;4.00;;;;;;;;;;10582020;27;20501;-68
2021/03/18 00:05:26;;;;;;;8.30;4.37;;;;;;;;;;10552205;27;20203;-69
2021/03/18 00:10:29;;;;;;;8.70;4.40;;;;;;;;;;10561234;27;20202;-68
2021/03/18 00:15:31;;;;;;;8.33;4.13;;;;;;;;;;10563075;27;20244;-70
2021/03/18 00:20:33;;;;;;;9.23;3.97;;;;;;;;;;10563061;27;20222;-70
2021/03/18 00:25:36;;;;;;;8.10;4.17;;;;;;;;;;10570430;27;20193;-70
2021/03/18 00:30:37;;;;;;;8.40;4.13;;;;;;;;;;10578814;27;20691;-69
2021/03/18 00:35:39;;;;;;;8.17;4.23;;;;;;;;;;10567169;27;20193;-69
2021/03/18 00:40:43;;;;;;;9.07;4.33;;;;;;;;;;10575051;27;20305;-68
2021/03/18 00:45:45;;;;;;;10.03;5.13;;;;;;;;;;10573147;27;20293;-69
2021/03/18 00:50:48;;;;;;;9.67;5.10;;;;;;;;;;10577476;27;20639;-69
2021/03/18 00:55:50;;;;;;;10.63;4.90;;;;;;;;;;10574246;27;20254;-68
2021/03/18 01:00:53;;;;;;;12.30;5.43;;;;;;;;;;10577484;27;20284;-69
2021/03/18 01:05:57;;;;;;;11.10;5.03;;;;;;;;;;10566496;27;20260;-69
2021/03/18 01:11:00;;;;;;;10.43;5.43;;;;;;;;;;10571507;27;20203;-69
2021/03/18 01:16:04;;;;;;;11.90;5.47;;;;;;;;;;10567695;27;20217;-69
2021/03/18 01:21:06;;;;;;;13.20;5.87;;;;;;;;;;10577482;27;20207;-69
2021/03/18 01:26:09;;;;;;;11.07;5.03;;;;;;;;;;10553537;27;20199;-69
2021/03/18 01:31:11;;;;;;;12.50;5.87;;;;;;;;;;10579022;27;20199;-69
2021/03/18 01:36:13;;;;;;;13.77;6.33;;;;;;;;;;10565099;27;20220;-69
2021/03/18 01:41:17;;;;;;;11.40;5.97;;;;;;;;;;10573529;27;20207;-71
2021/03/18 01:46:19;;;;;;;12.70;5.73;;;;;;;;;;10564152;27;20198;-70
2021/03/18 01:51:20;;;;;;;13.43;6.13;;;;;;;;;;10574388;27;20271;-69
2021/03/18 01:56:23;;;;;;;12.57;5.80;;;;;;;;;;10557285;27;20213;-71
2021/03/18 02:01:25;;;;;;;14.47;5.90;;;;;;;;;;10559784;27;20218;-70
2021/03/18 02:06:27;;;;;;;12.20;5.77;;;;;;;;;;10571022;27;20191;-69
2021/03/18 02:11:29;;;;;;;13.17;6.13;;;;;;;;;;10575787;28;20647;-69
2021/03/18 02:16:34;;;;;;;13.43;6.43;;;;;;;;;;10548014;28;20215;-68
2021/03/18 02:22:03;;;;;;;15.43;6.27;;;;;;;;;;10566791;28;20206;-68
2021/03/18 02:27:25;;;;;;;13.43;6.13;;;;;;;;;;10574784;28;20195;-69
2021/03/18 02:32:36;;;;;;;12.70;6.47;;;;;;;;;;10561439;28;20235;-69
2021/03/18 02:37:41;;;;;;;15.47;6.67;;;;;;;;;;10581029;28;21569;-71
2021/03/18 02:42:45;;;;;;;16.07;7.17;;;;;;;;;;10585757;27;20222;-71
2021/03/18 02:47:48;;;;;;;15.53;7.27;;;;;;;;;;10571404;28;20592;-68
2021/03/18 02:52:51;;;;;;;16.23;7.10;;;;;;;;;;10561722;28;20727;-71
2021/03/18 02:57:54;;;;;;;16.53;8.07;;;;;;;;;;10574826;28;20222;-70
2021/03/18 03:02:56;;;;;;;15.20;7.53;;;;;;;;;;10574965;28;20642;-70
2021/03/18 03:07:59;;;;;;;15.70;7.30;;;;;;;;;;10565374;28;20638;-69
2021/03/18 03:13:01;;;;;;;14.63;7.43;;;;;;;;;;10538496;28;20768;-69
2021/03/18 03:18:06;;;;;;;14.33;7.13;;;;;;;;;;10551570;28;20195;-70
2021/03/18 03:23:09;;;;;;;15.03;7.10;;;;;;;;;;10571049;27;20665;-70
2021/03/18 03:28:12;;;;;;;15.10;7.10;;;;;;;;;;10567264;27;20198;-70
2021/03/18 03:33:13;;;;;;;17.17;8.47;;;;;;;;;;10584166;27;20698;-71
2021/03/18 03:38:16;;;;;;;13.97;7.33;;;;;;;;;;10585030;27;20194;-71
2021/03/18 03:43:18;;;;;;;16.30;7.87;;;;;;;;;;10567871;28;20306;-70
2021/03/18 03:48:20;;;;;;;16.47;7.80;;;;;;;;;;10582232;27;20239;-69
2021/03/18 03:53:26;;;;;;;16.53;8.17;;;;;;;;;;10567156;27;20465;-70
2021/03/18 03:58:35;;;;;;;18.93;8.47;;;;;;;;;;10578633;27;20587;-69
2021/03/18 04:03:38;;;;;;;17.33;8.67;;;;;;;;;;10564251;27;20219;-70
2021/03/18 04:08:43;;;;;;;17.40;8.27;;;;;;;;;;10581832;27;20202;-70
2021/03/18 04:13:45;;;;;;;16.50;8.53;;;;;;;;;;10559442;27;20215;-70
2021/03/18 04:18:48;;;;;;;18.67;8.50;;;;;;;;;;10581898;27;20294;-68
2021/03/18 04:23:51;;;;;;;17.53;8.40;;;;;;;;;;10567356;27;20225;-69
2021/03/18 04:28:52;;;;;;;16.40;8.03;;;;;;;;;;10583341;27;20951;-71
2021/03/18 04:33:54;;;;;;;17.73;8.40;;;;;;;;;;10574042;27;20311;-68
2021/03/18 04:38:57;;;;;;;18.43;9.00;;;;;;;;;;10559778;27;21062;-69
2021/03/18 04:44:01;;;;;;;17.20;8.90;;;;;;;;;;10567939;27;20693;-69
2021/03/18 04:49:03;;;;;;;20.47;9.27;;;;;;;;;;10573268;27;20701;-70
2021/03/18 04:54:06;;;;;;;20.40;9.10;;;;;;;;;;10559535;27;20611;-70
2021/03/18 04:59:08;;;;;;;18.93;9.87;;;;;;;;;;10564077;27;20358;-69
2021/03/18 05:04:10;;;;;;;19.07;9.30;;;;;;;;;;10572814;27;20268;-70
2021/03/18 05:09:12;;;;;;;20.57;9.00;;;;;;;;;;10552870;27;20215;-69
2021/03/18 05:14:14;;;;;;;16.73;9.17;;;;;;;;;;10574099;27;20253;-69
2021/03/18 05:19:17;;;;;;;20.43;9.50;;;;;;;;;;10591294;27;20233;-70
2021/03/18 05:24:19;;;;;;;17.57;9.80;;;;;;;;;;10578872;27;20720;-69
2021/03/18 05:29:21;;;;;;;21.53;9.33;;;;;;;;;;10573626;27;20207;-71
2021/03/18 05:34:23;;;;;;;17.33;8.57;;;;;;;;;;10570525;27;20222;-71
2021/03/18 05:39:25;;;;;;;20.10;9.87;;;;;;;;;;10567467;27;20731;-69
2021/03/18 05:44:27;;;;;;;18.97;9.80;;;;;;;;;;10568955;27;20305;-69
2021/03/18 05:49:29;;;;;;;18.87;9.20;;;;;;;;;;10564170;27;20600;-71
2021/03/18 05:54:32;;;;;;;23.80;11.13;;;;;;;;;;10578996;27;20223;-70
2021/03/18 05:59:35;;;;;;;20.43;10.33;;;;;;;;;;10588524;27;20190;-69
2021/03/18 06:04:37;;;;;;;18.40;9.57;;;;;;;;;;10575324;27;20241;-70
2021/03/18 06:09:40;;;;;;;21.47;10.67;;;;;;;;;;10573300;28;20601;-70
2021/03/18 06:14:41;;;;;;;20.37;10.50;;;;;;;;;;10585318;27;20535;-70
2021/03/18 06:19:43;;;;;;;23.83;11.47;;;;;;;;;;10580493;28;20736;-68
2021/03/18 06:24:49;;;;;;;22.13;10.60;;;;;;;;;;10568716;28;20207;-70
2021/03/18 06:29:51;;;;;;;20.33;10.93;;;;;;;;;;10565189;28;20780;-71
2021/03/18 06:34:53;;;;;;;18.97;10.00;;;;;;;;;;10590077;27;20640;-69
2021/03/18 06:39:56;;;;;;;20.13;10.83;;;;;;;;;;10563762;28;20211;-70
2021/03/18 06:45:05;;;;;;;21.63;11.67;;;;;;;;;;10546909;28;20239;-69
2021/03/18 06:50:07;;;;;;;19.97;11.43;;;;;;;;;;10563846;28;20341;-70
2021/03/18 06:55:11;;;;;;;21.53;11.67;;;;;;;;;;10570512;28;20192;-71
2021/03/18 07:00:13;;;;;;;21.30;11.83;;;;;;;;;;10562995;27;20222;-72
2021/03/18 07:05:18;;;;;;;20.30;11.60;;;;;;;;;;10580510;27;20560;-70
2021/03/18 07:10:32;;;;;;;18.30;11.13;;;;;;;;;;10530129;28;20367;-70
2021/03/18 07:15:37;;;;;;;22.33;12.00;;;;;;;;;;10544148;28;20267;-71
2021/03/18 07:20:39;;;;;;;19.50;11.10;;;;;;;;;;10562851;27;20326;-69
2021/03/18 07:25:46;;;;;;;20.77;11.53;;;;;;;;;;10548498;28;20265;-69
2021/03/18 07:30:47;;;;;;;20.63;11.80;;;;;;;;;;10550019;28;20305;-69
2021/03/18 07:35:49;;;;;;;19.60;11.67;;;;;;;;;;10547259;28;20269;-71
2021/03/18 07:40:52;;;;;;;19.57;11.40;;;;;;;;;;10550486;28;20234;-68
2021/03/18 07:45:54;;;;;;;20.93;12.47;;;;;;;;;;10551247;28;20294;-69
2021/03/18 07:50:56;;;;;;;20.63;11.70;;;;;;;;;;10549210;28;20219;-70
2021/03/18 07:55:59;;;;;;;21.40;11.53;;;;;;;;;;10547085;28;20201;-69
2021/03/18 08:01:00;;;;;;;19.93;11.70;;;;;;;;;;10559400;28;20219;-70
2021/03/18 08:06:02;;;;;;;21.33;11.53;;;;;;;;;;10557581;28;20199;-70
2021/03/18 08:11:06;;;;;;;18.47;11.10;;;;;;;;;;10552093;28;20566;-70
2021/03/18 08:16:08;;;;;;;19.90;11.50;;;;;;;;;;10530188;28;20203;-69
2021/03/18 08:21:11;;;;;;;18.10;11.10;;;;;;;;;;10542892;28;20317;-69
2021/03/18 08:26:19;;;;;;;21.10;11.63;;;;;;;;;;10548738;28;20192;-70
2021/03/18 08:31:22;;;;;;;20.20;11.33;;;;;;;;;;10546252;28;21059;-72
2021/03/18 08:36:25;;;;;;;19.47;11.30;;;;;;;;;;10548202;28;20183;-69
2021/03/18 08:41:29;;;;;;;17.10;10.63;;;;;;;;;;10555513;28;20216;-70
2021/03/18 08:46:37;;;;;;;19.87;10.10;;;;;;;;;;10547816;28;20698;-69
2021/03/18 08:51:40;;;;;;;20.27;11.60;;;;;;;;;;10546822;28;20211;-70
2021/03/18 08:56:43;;;;;;;17.23;9.97;;;;;;;;;;10543693;28;20202;-69
2021/03/18 09:01:45;;;;;;;18.67;9.80;;;;;;;;;;10545032;28;20292;-69
2021/03/18 09:06:48;;;;;;;17.03;9.73;;;;;;;;;;10539955;28;20999;-70
2021/03/18 09:11:53;;;;;;;18.73;9.87;;;;;;;;;;10542930;28;20218;-70
2021/03/18 09:17:02;;;;;;;16.60;9.47;;;;;;;;;;10562784;28;20248;-69
2021/03/18 09:22:08;;;;;;;14.80;9.37;;;;;;;;;;10550007;28;20206;-69
2021/03/18 09:27:11;;;;;;;17.63;9.73;;;;;;;;;;10548000;28;20285;-69
2021/03/18 09:32:13;;;;;;;14.27;8.47;;;;;;;;;;10557624;27;20218;-71
2021/03/18 09:37:15;;;;;;;16.23;9.63;;;;;;;;;;10563959;27;20207;-69
2021/03/18 09:42:20;;;;;;;17.93;10.10;;;;;;;;;;10558578;28;20229;-69
2021/03/18 09:47:21;;;;;;;14.40;9.53;;;;;;;;;;10554210;27;20273;-69
2021/03/18 09:52:27;;;;;;;16.00;9.63;;;;;;;;;;10526362;28;20215;-70
2021/03/18 09:57:32;;;;;;;21.07;11.07;;;;;;;;;;10550765;28;20191;-69
2021/03/18 10:02:42;;;;;;;17.27;10.77;;;;;;;;;;10551486;28;20293;-69
2021/03/18 10:07:44;;;;;;;16.37;10.27;;;;;;;;;;10541489;28;20780;-69
2021/03/18 10:12:47;;;;;;;13.90;8.30;;;;;;;;;;10547248;28;20243;-69
2021/03/18 10:17:50;;;;;;;14.70;7.50;;;;;;;;;;10560362;28;20231;-70
2021/03/18 10:23:01;;;;;;;11.27;7.10;;;;;;;;;;10560521;28;20593;-69
2021/03/18 10:28:05;;;;;;;12.37;8.03;;;;;;;;;;10545203;28;20187;-69
2021/03/18 10:33:08;;;;;;;10.47;7.10;;;;;;;;;;10561458;27;20234;-69
2021/03/18 10:38:10;;;;;;;11.97;7.83;;;;;;;;;;10583234;27;20212;-69
2021/03/18 10:43:21;;;;;;;13.70;8.27;;;;;;;;;;10564414;27;20560;-70
2021/03/18 10:48:24;;;;;;;9.38;6.97;;;;;;;;;;10588252;27;20198;-69
2021/03/18 10:53:26;;;;;;;9.90;7.32;;;;;;;;;;10616797;27;20582;-70
2021/03/18 10:58:44;;;;;;;9.40;6.55;;;;;;;;;;10581537;27;20209;-70
2021/03/18 11:03:48;;;;;;;10.48;6.70;;;;;;;;;;10579622;27;20229;-70
2021/03/18 11:08:51;;;;;;;10.38;6.80;;;;;;;;;;10576908;27;20542;-71
2021/03/18 11:14:04;;;;;;;10.63;6.60;;;;;;;;;;10579390;27;20215;-71
2021/03/18 11:19:07;;;;;;;10.27;6.20;;;;;;;;;;10579203;27;20612;-70
2021/03/18 11:24:09;;;;;;;10.53;6.03;;;;;;;;;;10554244;27;20571;-70
2021/03/18 11:29:13;;;;;;;10.27;5.83;;;;;;;;;;10569606;27;20203;-70
2021/03/18 11:34:16;;;;;;;9.43;5.67;;;;;;;;;;10583168;27;20686;-69
2021/03/18 11:39:18;;;;;;;9.93;6.10;;;;;;;;;;10584565;27;20595;-70
2021/03/18 11:44:20;;;;;;;9.10;4.40;;;;;;;;;;10576029;27;20272;-71
2021/03/18 11:49:24;;;;;;;10.50;5.30;;;;;;;;;;10568007;27;20248;-69
2021/03/18 11:54:26;;;;;;;10.07;5.00;;;;;;;;;;10582840;27;20260;-69
2021/03/18 11:59:28;;;;;;;8.83;3.83;;;;;;;;;;10570904;27;20195;-70
2021/03/18 12:04:30;;;;;;;10.77;5.20;;;;;;;;;;10583282;27;20602;-70
2021/03/18 12:09:32;;;;;;;9.00;4.43;;;;;;;;;;10568334;27;20199;-70
2021/03/18 12:14:34;;;;;;;7.80;3.63;;;;;;;;;;10583165;27;20536;-71
2021/03/18 12:19:36;;;;;;;10.20;4.20;;;;;;;;;;10559189;27;20656;-71
2021/03/18 12:24:37;;;;;;;8.23;3.63;;;;;;;;;;10572928;27;20702;-70
2021/03/18 12:29:40;;;;;;;9.77;4.00;;;;;;;;;;10595951;27;20282;-71
2021/03/18 12:34:41;;;;;;;5.67;2.80;;;;;;;;;;10575639;27;20641;-70
2021/03/18 12:39:43;;;;;;;6.37;2.97;;;;;;;;;;10573426;27;20286;-70
2021/03/18 12:44:46;;;;;;;6.60;3.13;;;;;;;;;;10577805;27;20306;-69
2021/03/18 12:49:48;;;;;;;7.63;3.80;;;;;;;;;;10570402;27;20199;-70
2021/03/18 12:54:50;;;;;;;7.57;3.50;;;;;;;;;;10581065;27;20195;-69
2021/03/18 12:59:52;;;;;;;7.10;3.40;;;;;;;;;;10576435;27;20263;-70
2021/03/18 13:04:54;;;;;;;6.43;3.50;;;;;;;;;;10551595;27;20692;-71
2021/03/18 13:09:56;;;;;;;7.70;3.50;;;;;;;;;;10593828;27;20229;-71
2021/03/18 13:14:59;;;;;;;6.77;3.10;;;;;;;;;;10576185;27;20277;-70
2021/03/18 13:20:00;;;;;;;8.23;3.50;;;;;;;;;;10580171;27;20308;-70
2021/03/18 13:25:03;;;;;;;7.57;3.70;;;;;;;;;;10571534;27;20288;-70
2021/03/18 13:30:07;;;;;;;7.60;4.03;;;;;;;;;;10582871;27;20293;-69
2021/03/18 13:35:09;;;;;;;7.80;4.23;;;;;;;;;;10583053;27;20226;-70
2021/03/18 13:40:11;;;;;;;10.27;4.70;;;;;;;;;;10577066;27;20226;-70
2021/03/18 13:45:14;;;;;;;7.90;3.70;;;;;;;;;;10582495;27;20226;-69
2021/03/18 13:50:15;;;;;;;9.70;4.60;;;;;;;;;;10556546;27;20318;-70
2021/03/18 13:55:17;;;;;;;10.43;5.47;;;;;;;;;;10580597;27;20201;-71
2021/03/18 14:00:20;;;;;;;9.93;5.13;;;;;;;;;;10570800;27;20218;-69
2021/03/18 14:05:23;;;;;;;8.50;4.80;;;;;;;;;;10555384;27;20709;-70
2021/03/18 14:10:26;;;;;;;10.40;4.77;;;;;;;;;;10565976;27;20264;-71
2021/03/18 14:15:33;;;;;;;10.07;4.93;;;;;;;;;;10578933;28;20722;-69
2021/03/18 14:20:36;;;;;;;9.57;5.03;;;;;;;;;;10575222;28;20218;-69
2021/03/18 14:25:38;;;;;;;9.53;4.30;;;;;;;;;;10569237;28;20562;-67
2021/03/18 14:30:41;;;;;;;7.53;4.03;;;;;;;;;;10568933;28;20336;-69
2021/03/18 14:35:43;;;;;;;9.43;4.30;;;;;;;;;;10542171;28;20187;-69
2021/03/18 14:40:46;;;;;;;9.00;4.40;;;;;;;;;;10563697;28;20211;-69
2021/03/18 14:45:49;;;;;;;7.90;3.50;;;;;;;;;;10569803;28;20303;-69
2021/03/18 14:50:51;;;;;;;8.63;3.23;;;;;;;;;;10565970;28;20206;-70
2021/03/18 14:55:53;;;;;;;8.13;3.70;;;;;;;;;;10573267;28;20195;-69
2021/03/18 15:01:16;;;;;;;8.83;4.17;;;;;;;;;;10574747;28;20214;-69
2021/03/18 15:06:18;;;;;;;10.63;4.47;;;;;;;;;;10573955;28;20218;-69
2021/03/18 15:11:20;;;;;;;8.43;4.17;;;;;;;;;;10573135;28;20211;-69
2021/03/18 15:16:22;;;;;;;8.40;4.50;;;;;;;;;;10558407;28;20601;-69
2021/03/18 15:21:24;;;;;;;7.67;4.13;;;;;;;;;;10569713;27;20211;-68
2021/03/18 15:26:27;;;;;;;11.80;5.53;;;;;;;;;;10586656;27;20214;-69
2021/03/18 15:31:29;;;;;;;8.17;4.47;;;;;;;;;;10585187;27;20215;-69
2021/03/18 15:36:31;;;;;;;6.87;3.50;;;;;;;;;;10577246;27;20193;-69
2021/03/18 15:41:34;;;;;;;7.83;3.67;;;;;;;;;;10562945;27;20698;-69
2021/03/18 15:46:37;;;;;;;7.53;3.67;;;;;;;;;;10600590;27;20716;-68
2021/03/18 15:51:40;;;;;;;8.30;3.67;;;;;;;;;;10553530;28;20598;-68
2021/03/18 15:56:42;;;;;;;8.67;4.03;;;;;;;;;;10565409;27;20666;-70
2021/03/18 16:01:44;;;;;;;8.87;4.33;;;;;;;;;;10588060;27;20280;-70
2021/03/18 16:06:48;;;;;;;8.30;3.87;;;;;;;;;;10583671;27;20219;-69
2021/03/18 16:11:49;;;;;;;7.30;3.73;;;;;;;;;;10569906;27;20367;-71
2021/03/18 16:16:57;;;;;;;8.37;4.07;;;;;;;;;;10569794;27;20187;-69
2021/03/18 16:21:58;;;;;;;9.47;4.43;;;;;;;;;;10573924;27;20229;-69
2021/03/18 16:27:00;;;;;;;8.20;4.10;;;;;;;;;;10579475;27;20304;-68
2021/03/18 16:32:03;;;;;;;7.83;3.80;;;;;;;;;;10580029;27;20742;-69
2021/03/18 16:37:05;;;;;;;9.23;4.47;;;;;;;;;;10570311;27;20199;-69
2021/03/18 16:42:07;;;;;;;4.67;2.30;;;;;;;;;;10576204;27;20219;-70
2021/03/18 16:47:22;;;;;;;7.17;3.40;;;;;;;;;;10576675;27;20213;-71
2021/03/18 16:52:24;;;;;;;9.73;4.40;;;;;;;;;;10568925;27;20227;-69
2021/03/18 16:57:25;;;;;;;6.70;3.20;;;;;;;;;;10556570;27;20346;-69
2021/03/18 17:02:29;;;;;;;6.10;2.60;;;;;;;;;;10568586;27;20241;-71
2021/03/18 17:07:31;;;;;;;8.50;3.77;;;;;;;;;;10570154;27;20647;-70
2021/03/18 17:12:33;;;;;;;7.30;3.03;;;;;;;;;;10554743;28;20314;-69
2021/03/18 17:17:45;;;;;;;7.30;3.00;;;;;;;;;;10563516;27;20256;-69
2021/03/18 17:22:46;;;;;;;6.83;3.10;;;;;;;;;;10543518;28;20690;-69
2021/03/18 17:27:48;;;;;;;6.97;3.10;;;;;;;;;;10532890;28;20539;-69
2021/03/18 17:32:51;;;;;;;7.30;3.00;;;;;;;;;;10573081;27;20327;-69
2021/03/18 17:37:54;;;;;;;6.80;3.13;;;;;;;;;;10570992;27;20191;-69
2021/03/18 17:42:55;;;;;;;8.27;3.50;;;;;;;;;;10573538;27;20746;-68
2021/03/18 17:48:13;;;;;;;8.17;3.47;;;;;;;;;;10574431;27;20204;-71
2021/03/18 17:53:17;;;;;;;8.73;3.73;;;;;;;;;;10552315;27;20215;-70
2021/03/18 17:58:19;;;;;;;7.77;3.47;;;;;;;;;;10552122;27;20202;-69
2021/03/18 18:03:21;;;;;;;9.80;3.50;;;;;;;;;;10573168;27;20214;-70
2021/03/18 18:08:23;;;;;;;10.57;5.93;;;;;;;;;;10571080;27;20213;-69
2021/03/18 18:13:28;;;;;;;9.30;3.83;;;;;;;;;;10578795;27;20742;-69
2021/03/18 18:18:37;;;;;;;11.10;4.37;;;;;;;;;;10568085;28;20221;-70
2021/03/18 18:23:39;;;;;;;9.13;4.13;;;;;;;;;;10574896;28;20271;-71
2021/03/18 18:28:41;;;;;;;8.27;4.10;;;;;;;;;;10573613;28;20557;-69
2021/03/18 18:33:43;;;;;;;9.60;4.27;;;;;;;;;;10569063;28;20252;-70
2021/03/18 18:38:45;;;;;;;9.53;4.47;;;;;;;;;;10570986;28;20183;-72
2021/03/18 18:43:47;;;;;;;9.57;4.10;;;;;;;;;;10562355;28;20249;-70
2021/03/18 18:48:56;;;;;;;12.47;5.10;;;;;;;;;;10589856;28;20309;-69
2021/03/18 18:53:57;;;;;;;11.20;5.00;;;;;;;;;;10554242;27;20206;-69
2021/03/18 18:58:59;;;;;;;9.93;4.70;;;;;;;;;;10567272;27;20200;-70
2021/03/18 19:04:02;;;;;;;9.83;4.90;;;;;;;;;;10550947;27;20747;-70
2021/03/18 19:09:06;;;;;;;9.60;4.40;;;;;;;;;;10580085;27;20293;-69
2021/03/18 19:14:08;;;;;;;8.30;3.93;;;;;;;;;;10577980;27;20202;-68
2021/03/18 19:19:20;;;;;;;11.03;5.50;;;;;;;;;;10575615;27;20202;-69
2021/03/18 19:24:22;;;;;;;9.33;4.50;;;;;;;;;;10555537;28;20223;-69
2021/03/18 19:29:24;;;;;;;9.93;5.30;;;;;;;;;;10558171;28;20186;-69
2021/03/18 19:34:26;;;;;;;9.90;4.90;;;;;;;;;;10576349;27;20207;-69
2021/03/18 19:39:31;;;;;;;7.47;3.27;;;;;;;;;;10577932;27;20195;-69
2021/03/18 19:44:33;;;;;;;9.40;3.63;;;;;;;;;;10564792;27;20230;-70
2021/03/18 19:49:39;;;;;;;9.03;3.67;;;;;;;;;;10576880;27;20229;-69
2021/03/18 19:54:40;;;;;;;10.13;5.33;;;;;;;;;;10567551;27;20694;-69
2021/03/18 19:59:42;;;;;;;12.80;5.53;;;;;;;;;;10574311;27;20187;-70
2021/03/18 20:04:45;;;;;;;13.83;6.03;;;;;;;;;;10569814;27;20786;-68
2021/03/18 20:09:47;;;;;;;11.23;5.67;;;;;;;;;;10551291;28;20222;-68
2021/03/18 20:14:48;;;;;;;10.63;5.30;;;;;;;;;;10572999;27;20705;-69
2021/03/18 20:20:05;;;;;;;11.53;4.90;;;;;;;;;;10567708;27;20214;-69
2021/03/18 20:25:08;;;;;;;12.60;5.50;;;;;;;;;;10573007;27;20266;-68
2021/03/18 20:30:10;;;;;;;10.37;4.80;;;;;;;;;;10568318;27;20516;-69
2021/03/18 20:35:13;;;;;;;10.73;4.77;;;;;;;;;;10552377;27;20252;-68
2021/03/18 20:40:16;;;;;;;11.60;6.10;;;;;;;;;;10557334;28;20215;-69
2021/03/18 20:45:18;;;;;;;9.57;4.90;;;;;;;;;;10565906;27;20693;-71
2021/03/18 20:50:27;;;;;;;12.70;5.43;;;;;;;;;;10567109;28;20289;-69
2021/03/18 20:55:29;;;;;;;10.73;4.87;;;;;;;;;;10565351;27;20287;-69
2021/03/18 21:00:32;;;;;;;8.07;4.00;;;;;;;;;;10565032;27;20227;-68
2021/03/18 21:05:34;;;;;;;11.83;5.87;;;;;;;;;;10567400;27;20219;-68
2021/03/18 21:10:37;;;;;;;11.03;5.80;;;;;;;;;;10568782;28;20203;-69
2021/03/18 21:15:38;;;;;;;12.80;5.73;;;;;;;;;;10567752;27;20619;-69
2021/03/18 21:20:48;;;;;;;11.30;5.40;;;;;;;;;;10593369;27;20264;-69
2021/03/18 21:25:51;;;;;;;10.57;4.87;;;;;;;;;;10569958;27;20302;-68
2021/03/18 21:30:52;;;;;;;12.33;5.97;;;;;;;;;;10564682;28;20285;-70
2021/03/18 21:35:55;;;;;;;12.30;7.28;;;;;;;;;;10558600;28;20986;-69
2021/03/18 21:40:56;;;;;;;12.27;5.70;;;;;;;;;;10565325;28;20277;-69
2021/03/18 21:45:58;;;;;;;11.53;6.03;;;;;;;;;;10571850;27;20271;-70
2021/03/18 21:51:09;;;;;;;12.40;6.13;;;;;;;;;;10560683;27;20289;-69
2021/03/18 21:56:10;;;;;;;13.67;6.70;;;;;;;;;;10566875;27;20248;-68
2021/03/18 22:01:12;;;;;;;12.57;5.97;;;;;;;;;;10570985;27;20388;-71
2021/03/18 22:06:15;;;;;;;13.00;6.60;;;;;;;;;;10565900;27;20242;-69
2021/03/18 22:11:16;;;;;;;12.87;6.30;;;;;;;;;;10560701;28;20313;-68
2021/03/18 22:16:18;;;;;;;11.67;5.63;;;;;;;;;;10563758;27;20259;-69
2021/03/18 22:21:33;;;;;;;12.90;6.53;;;;;;;;;;10573705;27;20235;-69
2021/03/18 22:26:34;;;;;;;13.07;5.93;;;;;;;;;;10559498;28;20203;-68
2021/03/18 22:31:37;;;;;;;13.20;5.97;;;;;;;;;;10572813;27;20215;-68
2021/03/18 22:36:39;;;;;;;12.80;6.10;;;;;;;;;;10570503;27;20194;-68
2021/03/18 22:41:41;;;;;;;15.23;7.27;;;;;;;;;;10558026;28;20231;-72
2021/03/18 22:46:42;;;;;;;12.20;6.07;;;;;;;;;;10566723;27;20571;-69
2021/03/18 22:51:53;;;;;;;14.00;6.93;;;;;;;;;;10576937;27;20298;-69
2021/03/18 22:56:55;;;;;;;15.20;7.63;;;;;;;;;;10577438;27;20219;-69
2021/03/18 23:01:57;;;;;;;13.87;6.13;;;;;;;;;;10573468;27;20207;-69
2021/03/18 23:07:01;;;;;;;11.07;5.63;;;;;;;;;;10570931;27;20221;-68
2021/03/18 23:12:03;;;;;;;7.87;4.00;;;;;;;;;;10570721;27;20214;-68
2021/03/18 23:17:10;;;;;;;15.20;7.93;;;;;;;;;;10568011;27;20219;-68
2021/03/18 23:22:18;;;;;;;15.03;7.50;;;;;;;;;;10559693;27;20221;-68
2021/03/18 23:27:20;;;;;;;15.60;8.00;;;;;;;;;;10579243;27;20301;-68
2021/03/18 23:32:22;;;;;;;13.77;7.07;;;;;;;;;;10561630;27;20324;-68
2021/03/18 23:37:25;;;;;;;14.93;8.30;;;;;;;;;;10565686;27;20187;-68
2021/03/18 23:42:27;;;;;;;14.17;7.10;;;;;;;;;;10572616;27;20215;-69
2021/03/18 23:47:28;;;;;;;15.40;7.63;;;;;;;;;;10578045;27;20243;-70
2021/03/18 23:52:39;;;;;;;15.90;8.57;;;;;;;;;;10559566;27;20234;-69
2021/03/18 23:57:42;;;;;;;17.30;8.87;;;;;;;;;;10562329;27;20422;-69
